LGTG

Tanagra Airport

Tanagra, Greece
TAF LGTG 171400Z 1715/1724 35012KT 9999 FEW030 SCT080 BECMG 1718/1720 30006KT FEW030
Issued Valid From Valid To
Aug-17 @ 14:00 UTC
(56 minutes ago)
Aug-17 @ 15:00 UTC
(in 4 minutes)
Aug-18 @ 00:00 UTC
(in 9 hours)
Aug-17 @ 15:00 to Aug-17 @ 18:00
TAF LGTG 171400Z 1715/1724 35012KT 9999 FEW030 SCT080
Wind Visibility Clouds
350° at 12 knots 10,000+ meters
  • Few at 3,000' AGL
  • Scattered at 8,000' AGL
Becoming Aug-17 @ 18:00 to Aug-18 @ 00:00
BECMG 1718/1720 30006KT FEW030
Wind Visibility Clouds
300° at 6 knots 10,000+ meters
  • Few at 3,000' AGL
TAF LGTG 171400Z 1715/1724 35012KT 9999 FEW030 SCT080 BECMG 1718/1720 30006KT FEW030
Issued Aug-17 @ 14:00 UTC
(56 minutes ago)
Valid From Aug-17 @ 15:00 UTC
(in 4 minutes)
Valid To Aug-18 @ 00:00 UTC
(in 9 hours)
Aug-17 @ 15:00 - Aug-17 @ 18:00
Wind Visibility
350° at 12 knots 10,000+ meters
Clouds
  • Few at 3,000' AGL
  • Scattered at 8,000' AGL
Becoming Aug-17 @ 18:00 - Aug-18 @ 00:00
Wind Visibility
300° at 6 knots 10,000+ meters
Clouds
  • Few at 3,000' AGL